Aeroporto :
LOGIN :

Iscrizione | Disclaimer

   EN    FR    IT 

 










Sommario :    VFR   VFR Marginale   IFR   IFR Intensivo   IFR Molto Intensivo
Visibilità : 
Base nubi : 
>= 8 km
>= 3000ft
5 / 8 km
1000 / 3000 ft
1500m / 5 km
500 / 1000 ft
800 / 1500m
200 / 500 ft
< 800m
< 200 ft
Simboli :   Temporali  Nebbia  Neve Forte  Precipitazioni Forti  Vento > 20 kt
SIGMETs :   Varie  Temporali  Ghiacco  Turbolenza  Onda orograficha  Ceneri Vulcaniche






- Altitudine del aeroporto : 529 ft
- Codice IATA : CHR


LFLX - Chateauroux

ULTIMO METAR :
  • 071900Z AUTO 20007KT 9999 OVC044 09/09 Q1021 TEMPO BKN007

METARs OBSOLETI :
  • 071830Z AUTO 17008KT 9999 OVC041 09/09 Q1020 TEMPO BKN007
  • 071800Z AUTO 16003KT 9999 OVC040 08/08 Q1021 TEMPO BKN007
  • 071730Z AUTO 18005KT 9999 FEW013 OVC041 08/08 Q1021 TEMPO BKN007
  • 071700Z AUTO 20004KT 9999 OVC040 08/08 Q1021 TEMPO 2500 -DZ OVC003
  • 071630Z AUTO 24003KT 9999 BKN041 08/08 Q1020 TEMPO 2500 -DZ OVC003

TAF TAF LFLX
Valido dal 07 a 18 ore il 09 a 00 ore UTC


071700Z 0718/0824 24007KT 9999 BKN030
TEMPO 0718/0808 BKN007
PROB30
TEMPO 0802/0808 2500 BR OVC003
BECMG 0808/0810 20015G25KT -RA
TEMPO 0810/0813 20020G30KT RA BKN012
TEMPO 0813/0816 4000 -RADZ OVC007
BECMG 0816/0818 NSW SCT040
TEMPO 0820/0824 20020G35KT 4000 SHRA BKN013 SCT030CB



MetMap, La meteo Aeronautica in un colpo d'occhio ! - Copyright ORBIFLY Dicembre 2007 - Disclaimer

ORBIFLY MET'MAP TEAM :

Programmazione e sviluppo : Alexandra Zaïnal
Concezione : Baudouin d'Aumeries
Aiuto per la programmazione : Marc-Olivier Méhu
Supporto tecnico e logistico : Manuel Goepfert
Aiuto per la traduzione : Arnaldo La Scala

Contatto : metmap@orbifly.com




FONTI E CREDITI :

   NOAA